createdAt,value
2022-10-24T00:02:45.890Z,13.40
2022-10-24T00:07:50.490Z,13.60
2022-10-24T00:12:56.674Z,13.53
2022-10-24T00:23:04.412Z,13.88
2022-10-24T00:28:09.895Z,11.90
2022-10-24T00:33:13.719Z,12.85
2022-10-24T00:38:17.675Z,12.07
2022-10-24T00:43:25.677Z,12.20
2022-10-24T00:48:34.955Z,12.43
2022-10-24T00:53:45.433Z,11.73
2022-10-24T00:58:53.076Z,12.50
2022-10-24T01:03:56.936Z,10.65
2022-10-24T01:09:12.140Z,11.63
2022-10-24T01:14:33.530Z,11.30
2022-10-24T01:20:00.429Z,12.02
2022-10-24T01:25:15.647Z,10.57
2022-10-24T01:30:21.931Z,9.90
2022-10-24T01:35:36.597Z,10.20
2022-10-24T01:40:55.444Z,10.10
2022-10-24T01:46:04.439Z,9.73
2022-10-24T01:51:10.199Z,12.13
2022-10-24T01:56:15.153Z,10.18
2022-10-24T02:01:25.774Z,9.80
2022-10-24T02:06:33.355Z,12.68
2022-10-24T02:11:37.381Z,10.50
2022-10-24T02:16:43.708Z,10.27
2022-10-24T02:21:56.672Z,11.95
2022-10-24T02:27:06.176Z,11.13
2022-10-24T02:32:14.945Z,10.02
2022-10-24T02:37:20.052Z,10.18
2022-10-24T02:42:25.782Z,9.70
2022-10-24T02:47:32.802Z,11.82
2022-10-24T02:52:38.846Z,10.45
2022-10-24T02:57:42.678Z,10.82
2022-10-24T03:02:48.235Z,11.45
2022-10-24T03:07:52.277Z,10.80
2022-10-24T03:12:56.368Z,10.55
2022-10-24T03:18:02.006Z,11.27
2022-10-24T03:23:05.852Z,10.25
2022-10-24T03:28:09.980Z,10.63
2022-10-24T03:33:15.256Z,9.48
2022-10-24T03:38:20.157Z,10.68
2022-10-24T03:43:24.242Z,10.40
2022-10-24T03:48:29.771Z,9.27
2022-10-24T03:53:33.672Z,9.30
2022-10-24T03:58:39.153Z,8.90
2022-10-24T04:03:44.865Z,8.85
2022-10-24T04:08:48.749Z,7.85
2022-10-24T04:13:53.510Z,8.60
2022-10-24T04:18:58.908Z,8.13
2022-10-24T04:24:03.073Z,8.20
2022-10-24T04:29:08.293Z,8.40
2022-10-24T04:34:14.036Z,8.00
2022-10-24T04:39:17.889Z,8.63
2022-10-24T04:44:22.001Z,7.93
2022-10-24T04:49:27.301Z,8.30
2022-10-24T04:54:31.322Z,7.65
2022-10-24T04:59:35.420Z,8.65
2022-10-24T05:04:40.696Z,9.57
2022-10-24T05:09:44.527Z,9.20
2022-10-24T05:14:48.360Z,9.88
2022-10-24T05:19:56.429Z,9.45
2022-10-24T05:25:01.274Z,9.55
2022-10-24T05:30:06.421Z,9.43
2022-10-24T05:35:12.135Z,9.90
2022-10-24T05:40:16.014Z,9.88
2022-10-24T05:45:20.629Z,9.48
2022-10-24T05:50:27.138Z,9.80
2022-10-24T05:55:33.744Z,11.07
2022-10-24T06:00:37.572Z,9.77
2022-10-24T06:05:42.803Z,10.00
2022-10-24T06:10:47.988Z,11.38
2022-10-24T06:15:52.207Z,10.80
2022-10-24T06:21:00.680Z,10.00
2022-10-24T06:26:11.007Z,9.95
2022-10-24T06:31:15.166Z,9.43
2022-10-24T06:36:20.830Z,9.60
2022-10-24T06:41:24.997Z,9.88
2022-10-24T06:46:28.837Z,9.05
2022-10-24T06:51:34.240Z,8.88
2022-10-24T06:56:38.191Z,8.40
2022-10-24T07:01:42.551Z,8.52
2022-10-24T07:06:48.043Z,8.20
2022-10-24T07:11:51.927Z,8.93
2022-10-24T07:16:55.789Z,8.98
2022-10-24T07:22:01.025Z,8.75
2022-10-24T07:27:05.223Z,8.25
2022-10-24T07:32:09.214Z,8.65
2022-10-24T07:37:14.535Z,8.45
2022-10-24T07:42:20.325Z,8.82
2022-10-24T07:47:24.228Z,8.15
2022-10-24T07:52:29.649Z,8.38
2022-10-24T07:57:33.622Z,7.70
2022-10-24T08:02:37.536Z,7.15
2022-10-24T08:07:46.214Z,7.50
2022-10-24T08:12:55.482Z,7.38
2022-10-24T08:17:59.486Z,7.30
2022-10-24T08:23:04.956Z,7.30
2022-10-24T08:28:09.248Z,7.35
2022-10-24T08:33:17.335Z,7.43
2022-10-24T08:38:25.112Z,7.18
2022-10-24T08:43:29.059Z,7.55
2022-10-24T08:48:41.841Z,6.55
2022-10-24T08:53:51.446Z,6.85
2022-10-24T08:58:56.535Z,6.30
2022-10-24T09:04:05.005Z,6.45
2022-10-24T09:09:20.890Z,6.40
2022-10-24T09:19:32.005Z,8.15
2022-10-24T09:24:43.580Z,6.43
2022-10-24T09:29:47.871Z,5.70
2022-10-24T09:40:14.267Z,5.97
2022-10-24T09:45:21.204Z,5.50
2022-10-24T09:50:25.909Z,5.70
2022-10-24T09:55:32.138Z,5.43
2022-10-24T10:00:38.344Z,5.30
2022-10-24T10:05:48.496Z,5.90
2022-10-24T10:11:07.583Z,5.13
2022-10-24T10:16:22.760Z,5.63
2022-10-24T10:21:26.602Z,5.80
2022-10-24T10:26:44.780Z,6.07
2022-10-24T10:31:51.052Z,5.80
2022-10-24T10:37:25.696Z,5.75
2022-10-24T10:42:37.669Z,6.50
2022-10-24T10:47:51.866Z,5.40
2022-10-24T10:53:02.763Z,5.05
2022-10-24T10:58:25.402Z,5.72
2022-10-24T11:03:38.691Z,5.10
2022-10-24T11:09:32.920Z,5.82
2022-10-24T11:14:42.354Z,5.03
2022-10-24T11:19:55.099Z,5.40
2022-10-24T11:25:02.497Z,5.45
2022-10-24T11:30:15.503Z,5.57
2022-10-24T11:35:27.887Z,5.50
2022-10-24T11:40:32.108Z,5.55
2022-10-24T11:45:45.594Z,5.63
2022-10-24T11:50:54.198Z,6.63
2022-10-24T11:56:02.657Z,6.05
2022-10-24T12:01:38.276Z,6.35
2022-10-24T12:07:15.258Z,5.90
2022-10-24T12:12:47.804Z,9.32
2022-10-24T12:18:05.903Z,7.72
2022-10-24T12:23:22.875Z,7.50
2022-10-24T12:28:27.236Z,7.43
2022-10-24T12:33:32.615Z,7.25
2022-10-24T12:39:09.967Z,8.20
2022-10-24T12:44:41.208Z,7.50
2022-10-24T12:49:48.799Z,7.22
2022-10-24T12:54:56.041Z,7.32
2022-10-24T13:00:02.264Z,7.03
2022-10-24T13:05:30.055Z,7.32
2022-10-24T13:10:48.840Z,6.78
2022-10-24T13:15:58.359Z,6.82
2022-10-24T13:21:18.371Z,6.78
2022-10-24T13:26:38.035Z,8.05
2022-10-24T13:31:47.562Z,6.97
2022-10-24T13:37:00.148Z,7.15
2022-10-24T13:42:07.816Z,7.45
2022-10-24T13:47:19.601Z,7.55
2022-10-24T13:52:30.978Z,7.57
2022-10-24T13:57:37.963Z,7.32
2022-10-24T14:02:43.953Z,7.63
2022-10-24T14:07:50.409Z,7.00
2022-10-24T14:12:57.271Z,8.48
2022-10-24T14:18:02.812Z,7.57
2022-10-24T14:23:25.306Z,7.75
2022-10-24T14:28:31.212Z,7.55
2022-10-24T14:33:44.822Z,8.10
2022-10-24T14:38:51.088Z,8.10
2022-10-24T14:43:56.234Z,8.40
2022-10-24T14:49:20.726Z,7.22
2022-10-24T14:54:31.174Z,8.05
2022-10-24T14:59:38.597Z,7.57
2022-10-24T15:04:45.896Z,7.65
2022-10-24T15:09:56.749Z,9.50
2022-10-24T15:15:21.512Z,9.55
2022-10-24T15:20:30.090Z,8.23
2022-10-24T15:25:43.648Z,9.95
2022-10-24T15:30:48.013Z,9.68
2022-10-24T15:35:52.213Z,9.75
2022-10-24T15:40:58.447Z,11.68
2022-10-24T15:46:02.145Z,13.00
2022-10-24T15:51:07.175Z,16.17
2022-10-24T15:56:12.942Z,13.90
2022-10-24T16:01:26.002Z,11.00
2022-10-24T16:06:30.233Z,11.63
2022-10-24T16:11:35.576Z,12.23
2022-10-24T16:16:39.353Z,12.00
2022-10-24T16:21:43.568Z,11.70
2022-10-24T16:26:48.885Z,11.52
2022-10-24T16:31:52.559Z,10.15
2022-10-24T16:36:56.786Z,10.38
2022-10-24T16:42:04.724Z,13.60
2022-10-24T16:47:10.085Z,9.85
2022-10-24T16:52:14.335Z,20.10
2022-10-24T16:57:19.466Z,12.90
2022-10-24T17:02:23.120Z,14.60
2022-10-24T17:07:26.966Z,13.07
2022-10-24T17:12:32.481Z,12.27
2022-10-24T17:17:36.314Z,12.95
2022-10-24T17:22:42.556Z,11.57
2022-10-24T17:27:48.234Z,13.75
2022-10-24T17:32:52.568Z,11.50
2022-10-24T17:38:09.083Z,13.88
2022-10-24T17:43:19.521Z,13.20
2022-10-24T17:48:23.685Z,13.38
2022-10-24T17:53:27.710Z,13.55
2022-10-24T17:58:33.641Z,13.65
2022-10-24T18:03:37.501Z,13.43
2022-10-24T18:08:41.827Z,18.50
2022-10-24T18:13:46.873Z,12.93
2022-10-24T18:18:50.658Z,11.67
2022-10-24T18:23:54.814Z,12.27
2022-10-24T18:29:00.008Z,11.88
2022-10-24T18:34:06.333Z,12.13
2022-10-24T18:39:13.824Z,14.32
2022-10-24T18:44:30.408Z,16.25
2022-10-24T18:49:36.030Z,21.73
2022-10-24T18:54:45.791Z,14.18
2022-10-24T18:59:51.367Z,15.98
2022-10-24T19:05:05.856Z,15.80
2022-10-24T19:10:17.141Z,12.40
2022-10-24T19:15:23.263Z,13.73
2022-10-24T19:20:27.602Z,12.82
2022-10-24T19:25:31.863Z,13.73
2022-10-24T19:30:38.113Z,11.95
2022-10-24T19:35:47.322Z,12.02
2022-10-24T19:40:55.384Z,12.98
2022-10-24T19:46:19.398Z,13.20
2022-10-24T19:51:25.335Z,13.00
2022-10-24T19:56:31.440Z,13.13
2022-10-24T20:01:38.451Z,12.68
2022-10-24T20:06:42.270Z,12.40
2022-10-24T20:11:46.026Z,12.77
2022-10-24T20:16:51.405Z,12.20
2022-10-24T20:21:57.774Z,13.88
2022-10-24T20:27:04.123Z,14.05
2022-10-24T20:32:09.218Z,13.50
2022-10-24T20:37:13.035Z,11.52
2022-10-24T20:42:17.935Z,12.02
2022-10-24T20:47:23.014Z,12.60
2022-10-24T20:52:26.916Z,12.45
2022-10-24T20:57:30.716Z,12.20
2022-10-24T21:02:36.905Z,11.25
2022-10-24T21:07:42.142Z,12.38
2022-10-24T21:12:47.707Z,12.23
2022-10-24T21:17:53.769Z,11.30
2022-10-24T21:22:59.585Z,10.85
2022-10-24T21:28:03.328Z,10.93
2022-10-24T21:33:10.741Z,9.90
2022-10-24T21:38:14.459Z,10.80
2022-10-24T21:43:18.157Z,12.18
2022-10-24T21:48:24.156Z,10.63
2022-10-24T21:53:29.385Z,10.85
2022-10-24T21:58:33.502Z,10.33
2022-10-24T22:03:38.808Z,11.18
2022-10-24T22:08:42.825Z,9.80
2022-10-24T22:13:48.285Z,11.30
2022-10-24T22:18:53.872Z,10.32
2022-10-24T22:23:58.389Z,9.80
2022-10-24T22:29:02.147Z,10.40
2022-10-24T22:34:07.724Z,9.82
2022-10-24T22:39:15.824Z,9.23
2022-10-24T22:44:21.576Z,10.95
2022-10-24T22:49:36.652Z,10.15
2022-10-24T22:54:41.049Z,10.17
2022-10-24T22:59:45.301Z,9.07
2022-10-24T23:04:59.346Z,9.98
2022-10-24T23:10:03.096Z,9.43
2022-10-24T23:15:08.234Z,9.10
2022-10-24T23:20:22.968Z,10.18
2022-10-24T23:25:27.456Z,9.60
2022-10-24T23:30:32.173Z,8.90
2022-10-24T23:35:39.742Z,8.90
2022-10-24T23:40:44.468Z,14.23
2022-10-24T23:45:56.671Z,10.23
2022-10-24T23:51:09.055Z,16.45
2022-10-24T23:56:13.570Z,19.98
